sensor_id;sensor_type;location;lat;lon;timestamp;pressure;altitude;pressure_sealevel;temperature;humidity
25430;BME280;13360;48.152;-1.788;2023-07-02T00:01:45;101334.75;;;17.97;100.00
25430;BME280;13360;48.152;-1.788;2023-07-02T00:04:10;101339.38;;;17.93;100.00
25430;BME280;13360;48.152;-1.788;2023-07-02T00:06:39;101343.31;;;17.92;100.00
25430;BME280;13360;48.152;-1.788;2023-07-02T00:09:15;101347.28;;;17.91;100.00
25430;BME280;13360;48.152;-1.788;2023-07-02T00:11:41;101352.34;;;17.89;100.00
25430;BME280;13360;48.152;-1.788;2023-07-02T00:14:07;101348.72;;;17.88;100.00
25430;BME280;13360;48.152;-1.788;2023-07-02T00:16:32;101333.44;;;17.86;100.00
25430;BME280;13360;48.152;-1.788;2023-07-02T00:18:58;101340.19;;;17.85;100.00
25430;BME280;13360;48.152;-1.788;2023-07-02T00:21:25;101340.88;;;17.82;100.00
25430;BME280;13360;48.152;-1.788;2023-07-02T00:23:53;101338.41;;;17.80;100.00
25430;BME280;13360;48.152;-1.788;2023-07-02T00:26:18;101333.16;;;17.79;100.00
25430;BME280;13360;48.152;-1.788;2023-07-02T00:28:43;101342.69;;;17.78;100.00
25430;BME280;13360;48.152;-1.788;2023-07-02T00:31:09;101343.84;;;17.77;100.00
25430;BME280;13360;48.152;-1.788;2023-07-02T00:33:34;101340.22;;;17.76;100.00
25430;BME280;13360;48.152;-1.788;2023-07-02T00:35:59;101341.72;;;17.74;100.00
25430;BME280;13360;48.152;-1.788;2023-07-02T00:38:26;101344.00;;;17.72;100.00
25430;BME280;13360;48.152;-1.788;2023-07-02T00:40:51;101341.56;;;17.70;100.00
25430;BME280;13360;48.152;-1.788;2023-07-02T00:43:16;101348.25;;;17.69;100.00
25430;BME280;13360;48.152;-1.788;2023-07-02T00:45:41;101341.34;;;17.66;100.00
25430;BME280;13360;48.152;-1.788;2023-07-02T00:48:07;101340.34;;;17.62;100.00
25430;BME280;13360;48.152;-1.788;2023-07-02T00:50:32;101344.16;;;17.58;100.00
25430;BME280;13360;48.152;-1.788;2023-07-02T00:52:57;101347.28;;;17.56;100.00
25430;BME280;13360;48.152;-1.788;2023-07-02T00:55:23;101341.19;;;17.54;100.00
25430;BME280;13360;48.152;-1.788;2023-07-02T00:57:48;101340.72;;;17.52;100.00
25430;BME280;13360;48.152;-1.788;2023-07-02T01:00:14;101344.66;;;17.51;100.00
25430;BME280;13360;48.152;-1.788;2023-07-02T01:02:39;101348.06;;;17.48;100.00
25430;BME280;13360;48.152;-1.788;2023-07-02T01:05:13;101345.28;;;17.48;100.00
25430;BME280;13360;48.152;-1.788;2023-07-02T01:07:38;101345.28;;;17.48;100.00
25430;BME280;13360;48.152;-1.788;2023-07-02T01:10:04;101342.81;;;17.47;100.00
25430;BME280;13360;48.152;-1.788;2023-07-02T01:12:29;101339.53;;;17.45;100.00
25430;BME280;13360;48.152;-1.788;2023-07-02T01:14:55;101349.88;;;17.44;100.00
25430;BME280;13360;48.152;-1.788;2023-07-02T01:17:21;101346.59;;;17.42;100.00
25430;BME280;13360;48.152;-1.788;2023-07-02T01:22:18;101340.03;;;17.38;100.00
25430;BME280;13360;48.152;-1.788;2023-07-02T01:24:44;101351.88;;;17.35;100.00
25430;BME280;13360;48.152;-1.788;2023-07-02T01:27:12;101344.97;;;17.32;100.00
25430;BME280;13360;48.152;-1.788;2023-07-02T01:29:37;101342.84;;;17.29;100.00
25430;BME280;13360;48.152;-1.788;2023-07-02T01:32:02;101350.88;;;17.31;100.00
25430;BME280;13360;48.152;-1.788;2023-07-02T01:34:28;101354.81;;;17.30;100.00
25430;BME280;13360;48.152;-1.788;2023-07-02T01:36:53;101355.16;;;17.28;100.00
25430;BME280;13360;48.152;-1.788;2023-07-02T01:39:18;101350.69;;;17.27;100.00
25430;BME280;13360;48.152;-1.788;2023-07-02T01:44:15;101359.41;;;17.26;100.00
25430;BME280;13360;48.152;-1.788;2023-07-02T01:46:40;101368.91;;;17.25;100.00
25430;BME280;13360;48.152;-1.788;2023-07-02T01:49:05;101366.13;;;17.25;100.00
25430;BME280;13360;48.152;-1.788;2023-07-02T01:51:30;101367.28;;;17.24;100.00
25430;BME280;13360;48.152;-1.788;2023-07-02T01:53:56;101359.06;;;17.19;100.00
25430;BME280;13360;48.152;-1.788;2023-07-02T01:56:21;101360.72;;;17.20;100.00
25430;BME280;13360;48.152;-1.788;2023-07-02T01:58:46;101371.06;;;17.19;100.00
25430;BME280;13360;48.152;-1.788;2023-07-02T02:01:11;101371.88;;;17.20;100.00
25430;BME280;13360;48.152;-1.788;2023-07-02T02:03:36;101371.88;;;17.20;100.00
25430;BME280;13360;48.152;-1.788;2023-07-02T02:06:02;101369.41;;;17.18;100.00
25430;BME280;13360;48.152;-1.788;2023-07-02T02:08:27;101370.22;;;17.19;100.00
25430;BME280;13360;48.152;-1.788;2023-07-02T02:10:52;101361.38;;;17.17;100.00
25430;BME280;13360;48.152;-1.788;2023-07-02T02:13:17;101356.94;;;17.16;100.00
25430;BME280;13360;48.152;-1.788;2023-07-02T02:15:42;101360.06;;;17.14;100.00
25430;BME280;13360;48.152;-1.788;2023-07-02T02:18:08;101371.53;;;17.13;100.00
25430;BME280;13360;48.152;-1.788;2023-07-02T02:20:33;101370.41;;;17.14;100.00
25430;BME280;13360;48.152;-1.788;2023-07-02T02:22:58;101367.09;;;17.12;100.00
25430;BME280;13360;48.152;-1.788;2023-07-02T02:25:23;101369.91;;;17.12;100.00
25430;BME280;13360;48.152;-1.788;2023-07-02T02:27:49;101373.34;;;17.09;100.00
25430;BME280;13360;48.152;-1.788;2023-07-02T02:30:14;101375.31;;;17.08;100.00
25430;BME280;13360;48.152;-1.788;2023-07-02T02:32:39;101369.22;;;17.06;100.00
25430;BME280;13360;48.152;-1.788;2023-07-02T02:35:05;101375.63;;;17.06;100.00
25430;BME280;13360;48.152;-1.788;2023-07-02T02:37:30;101378.41;;;17.06;100.00
25430;BME280;13360;48.152;-1.788;2023-07-02T02:39:58;101379.88;;;17.04;100.00
25430;BME280;13360;48.152;-1.788;2023-07-02T02:42:24;101375.78;;;17.01;100.00
25430;BME280;13360;48.152;-1.788;2023-07-02T02:44:50;101374.13;;;17.00;100.00
25430;BME280;13360;48.152;-1.788;2023-07-02T02:47:15;101403.19;;;16.99;100.00
25430;BME280;13360;48.152;-1.788;2023-07-02T02:49:40;101396.47;;;17.00;100.00
25430;BME280;13360;48.152;-1.788;2023-07-02T02:52:06;101389.06;;;16.96;100.00
25430;BME280;13360;48.152;-1.788;2023-07-02T02:54:31;101385.78;;;16.94;100.00
25430;BME280;13360;48.152;-1.788;2023-07-02T02:56:56;101393.00;;;16.95;100.00
25430;BME280;13360;48.152;-1.788;2023-07-02T02:59:22;101392.19;;;16.94;100.00
25430;BME280;13360;48.152;-1.788;2023-07-02T03:01:47;101389.72;;;16.93;100.00
25430;BME280;13360;48.152;-1.788;2023-07-02T03:04:12;101393.66;;;16.92;100.00
25430;BME280;13360;48.152;-1.788;2023-07-02T03:06:37;101399.56;;;16.90;100.00
25430;BME280;13360;48.152;-1.788;2023-07-02T03:09:04;101400.72;;;16.89;100.00
25430;BME280;13360;48.152;-1.788;2023-07-02T03:11:29;101395.13;;;16.89;100.00
25430;BME280;13360;48.152;-1.788;2023-07-02T03:13:54;101402.19;;;16.87;100.00
25430;BME280;13360;48.152;-1.788;2023-07-02T03:16:20;101410.03;;;16.85;100.00
25430;BME280;13360;48.152;-1.788;2023-07-02T03:18:46;101417.25;;;16.86;100.00
25430;BME280;13360;48.152;-1.788;2023-07-02T03:21:11;101425.31;;;16.87;100.00
25430;BME280;13360;48.152;-1.788;2023-07-02T03:23:37;101417.25;;;16.86;100.00
25430;BME280;13360;48.152;-1.788;2023-07-02T03:26:02;101409.19;;;16.84;100.00
25430;BME280;13360;48.152;-1.788;2023-07-02T03:28:27;101417.06;;;16.82;100.00
25430;BME280;13360;48.152;-1.788;2023-07-02T03:30:52;101431.03;;;16.82;100.00
25430;BME280;13360;48.152;-1.788;2023-07-02T03:33:18;101430.53;;;16.80;100.00
25430;BME280;13360;48.152;-1.788;2023-07-02T03:35:43;101434.47;;;16.79;100.00
25430;BME280;13360;48.152;-1.788;2023-07-02T03:38:09;101442.50;;;16.81;100.00
25430;BME280;13360;48.152;-1.788;2023-07-02T03:40:34;101448.91;;;16.81;100.00
25430;BME280;13360;48.152;-1.788;2023-07-02T03:42:59;101461.72;;;16.82;100.00
25430;BME280;13360;48.152;-1.788;2023-07-02T03:45:24;101462.34;;;16.79;100.00
25430;BME280;13360;48.152;-1.788;2023-07-02T03:47:50;101462.34;;;16.79;100.00
25430;BME280;13360;48.152;-1.788;2023-07-02T03:50:15;101467.44;;;16.77;100.00
25430;BME280;13360;48.152;-1.788;2023-07-02T03:52:40;101483.19;;;16.73;100.00
25430;BME280;13360;48.152;-1.788;2023-07-02T03:55:05;101487.94;;;16.72;100.00
25430;BME280;13360;48.152;-1.788;2023-07-02T03:57:31;101497.13;;;16.73;100.00
25430;BME280;13360;48.152;-1.788;2023-07-02T03:59:56;101495.47;;;16.72;100.00
25430;BME280;13360;48.152;-1.788;2023-07-02T04:02:21;101498.91;;;16.69;100.00
25430;BME280;13360;48.152;-1.788;2023-07-02T04:04:47;101515.66;;;16.69;100.00
25430;BME280;13360;48.152;-1.788;2023-07-02T04:07:12;101521.22;;;16.69;100.00
25430;BME280;13360;48.152;-1.788;2023-07-02T04:09:37;101533.22;;;16.69;100.00
25430;BME280;13360;48.152;-1.788;2023-07-02T04:12:03;101514.31;;;16.66;100.00
25430;BME280;13360;48.152;-1.788;2023-07-02T04:14:29;101528.53;;;16.65;100.00
25430;BME280;13360;48.152;-1.788;2023-07-02T04:16:54;101554.78;;;16.64;100.00
25430;BME280;13360;48.152;-1.788;2023-07-02T04:19:19;101562.63;;;16.62;100.00
25430;BME280;13360;48.152;-1.788;2023-07-02T04:21:44;101561.81;;;16.61;100.00
25430;BME280;13360;48.152;-1.788;2023-07-02T04:24:09;101574.63;;;16.62;100.00
25430;BME280;13360;48.152;-1.788;2023-07-02T04:26:35;101576.41;;;16.58;100.00
25430;BME280;13360;48.152;-1.788;2023-07-02T04:29:01;101587.88;;;16.57;100.00
25430;BME280;13360;48.152;-1.788;2023-07-02T04:31:27;101589.00;;;16.56;100.00
25430;BME280;13360;48.152;-1.788;2023-07-02T04:33:52;101606.06;;;16.54;100.00
25430;BME280;13360;48.152;-1.788;2023-07-02T04:36:18;101615.56;;;16.53;100.00
25430;BME280;13360;48.152;-1.788;2023-07-02T04:38:43;101659.38;;;16.53;100.00
25430;BME280;13360;48.152;-1.788;2023-07-02T04:41:08;101676.91;;;16.53;100.00
25430;BME280;13360;48.152;-1.788;2023-07-02T04:43:35;101685.59;;;16.52;100.00
25430;BME280;13360;48.152;-1.788;2023-07-02T04:46:00;101703.47;;;16.51;100.00
25430;BME280;13360;48.152;-1.788;2023-07-02T04:48:26;101711.84;;;16.51;100.00
25430;BME280;13360;48.152;-1.788;2023-07-02T04:50:52;101733.34;;;16.50;100.00
25430;BME280;13360;48.152;-1.788;2023-07-02T04:53:17;101745.31;;;16.51;100.00
25430;BME280;13360;48.152;-1.788;2023-07-02T04:55:42;101755.63;;;16.50;100.00
25430;BME280;13360;48.152;-1.788;2023-07-02T04:58:08;101790.75;;;16.51;100.00
25430;BME280;13360;48.152;-1.788;2023-07-02T05:00:33;101815.53;;;16.53;100.00
25430;BME280;13360;48.152;-1.788;2023-07-02T05:02:58;101822.75;;;16.54;100.00
25430;BME280;13360;48.152;-1.788;2023-07-02T05:05:24;101828.34;;;16.54;100.00
25430;BME280;13360;48.152;-1.788;2023-07-02T05:07:49;101835.56;;;16.55;100.00
25430;BME280;13360;48.152;-1.788;2023-07-02T05:10:14;101847.88;;;16.54;100.00
25430;BME280;13360;48.152;-1.788;2023-07-02T05:12:40;101852.31;;;16.55;100.00
25430;BME280;13360;48.152;-1.788;2023-07-02T05:15:05;101869.88;;;16.55;100.00
25430;BME280;13360;48.152;-1.788;2023-07-02T05:17:30;101881.84;;;16.56;100.00
25430;BME280;13360;48.152;-1.788;2023-07-02T05:19:59;101906.94;;;16.56;100.00
25430;BME280;13360;48.152;-1.788;2023-07-02T05:22:24;101913.03;;;16.58;100.00
25430;BME280;13360;48.152;-1.788;2023-07-02T05:24:50;101917.78;;;16.57;100.00
25430;BME280;13360;48.152;-1.788;2023-07-02T05:27:15;101940.63;;;16.59;100.00
25430;BME280;13360;48.152;-1.788;2023-07-02T05:29:40;101943.41;;;16.59;100.00
25430;BME280;13360;48.152;-1.788;2023-07-02T05:32:05;101962.41;;;16.57;100.00
25430;BME280;13360;48.152;-1.788;2023-07-02T05:34:31;101976.06;;;16.59;100.00
25430;BME280;13360;48.152;-1.788;2023-07-02T05:36:56;102006.44;;;16.60;100.00
25430;BME280;13360;48.152;-1.788;2023-07-02T05:39:21;102012.00;;;16.60;100.00
25430;BME280;13360;48.152;-1.788;2023-07-02T05:41:47;102033.72;;;16.63;100.00
25430;BME280;13360;48.152;-1.788;2023-07-02T05:44:12;102049.63;;;16.63;100.00
25430;BME280;13360;48.152;-1.788;2023-07-02T05:46:37;102089.19;;;16.65;100.00
25430;BME280;13360;48.152;-1.788;2023-07-02T05:49:03;102178.13;;;16.71;100.00
25430;BME280;13360;48.152;-1.788;2023-07-02T05:51:28;102298.31;;;16.75;100.00
25430;BME280;13360;48.152;-1.788;2023-07-02T05:53:53;102291.09;;;16.74;100.00
25430;BME280;13360;48.152;-1.788;2023-07-02T05:56:18;102294.16;;;16.72;100.00
25430;BME280;13360;48.152;-1.788;2023-07-02T05:58:45;102295.00;;;16.73;100.00
25430;BME280;13360;48.152;-1.788;2023-07-02T06:01:10;102307.28;;;16.72;100.00
25430;BME280;13360;48.152;-1.788;2023-07-02T06:03:35;102425.69;;;16.85;100.00
25430;BME280;13360;48.152;-1.788;2023-07-02T06:06:01;102461.44;;;16.83;100.00
25430;BME280;13360;48.152;-1.788;2023-07-02T06:08:26;102457.53;;;16.84;100.00
25430;BME280;13360;48.152;-1.788;2023-07-02T06:10:52;102478.19;;;16.83;100.00
25430;BME280;13360;48.152;-1.788;2023-07-02T06:13:17;102480.16;;;16.82;100.00
25430;BME280;13360;48.152;-1.788;2023-07-02T06:15:42;102490.19;;;16.83;100.00
25430;BME280;13360;48.152;-1.788;2023-07-02T06:18:08;102496.59;;;16.84;100.00
25430;BME280;13360;48.152;-1.788;2023-07-02T06:20:33;102515.00;;;16.85;100.00
25430;BME280;13360;48.152;-1.788;2023-07-02T06:22:58;102521.16;;;16.87;100.00
25430;BME280;13360;48.152;-1.788;2023-07-02T06:25:23;102523.94;;;16.87;100.00
25430;BME280;13360;48.152;-1.788;2023-07-02T06:27:49;102526.44;;;16.88;100.00
25430;BME280;13360;48.152;-1.788;2023-07-02T06:30:14;102543.72;;;16.90;100.00
25430;BME280;13360;48.152;-1.788;2023-07-02T06:32:39;102556.25;;;16.93;100.00
25430;BME280;13360;48.152;-1.788;2023-07-02T06:35:05;102552.03;;;16.95;100.00
25430;BME280;13360;48.152;-1.788;2023-07-02T06:37:31;102656.00;;;17.06;100.00
25430;BME280;13360;48.152;-1.788;2023-07-02T06:39:56;102653.22;;;17.06;100.00
25430;BME280;13360;48.152;-1.788;2023-07-02T06:42:21;102649.59;;;17.05;100.00
25430;BME280;13360;48.152;-1.788;2023-07-02T06:44:47;102650.16;;;17.08;100.00
25430;BME280;13360;48.152;-1.788;2023-07-02T06:47:12;102649.03;;;17.09;100.00
25430;BME280;13360;48.152;-1.788;2023-07-02T06:49:37;102667.47;;;17.10;100.00
25430;BME280;13360;48.152;-1.788;2023-07-02T06:52:03;102658.47;;;17.13;100.00
25430;BME280;13360;48.152;-1.788;2023-07-02T06:54:28;102660.38;;;17.17;100.00
25430;BME280;13360;48.152;-1.788;2023-07-02T06:56:53;102663.19;;;17.17;100.00
25430;BME280;13360;48.152;-1.788;2023-07-02T06:59:19;102667.88;;;17.22;100.00
25430;BME280;13360;48.152;-1.788;2023-07-02T07:01:45;102676.78;;;17.24;100.00
25430;BME280;13360;48.152;-1.788;2023-07-02T07:04:10;102661.41;;;17.26;100.00
25430;BME280;13360;48.152;-1.788;2023-07-02T07:06:35;102651.63;;;17.29;100.00
25430;BME280;13360;48.152;-1.788;2023-07-02T07:09:02;102648.22;;;17.32;100.00
25430;BME280;13360;48.152;-1.788;2023-07-02T07:11:27;102652.38;;;17.34;100.00
25430;BME280;13360;48.152;-1.788;2023-07-02T07:13:53;102649.53;;;17.40;100.00
25430;BME280;13360;48.152;-1.788;2023-07-02T07:16:18;102631.88;;;17.44;100.00
25430;BME280;13360;48.152;-1.788;2023-07-02T07:18:44;102626.25;;;17.49;100.00
25430;BME280;13360;48.152;-1.788;2023-07-02T07:21:10;102612.19;;;17.54;100.00
25430;BME280;13360;48.152;-1.788;2023-07-02T07:23:35;102602.69;;;17.55;100.00
25430;BME280;13360;48.152;-1.788;2023-07-02T07:26:01;102589.56;;;17.56;100.00
25430;BME280;13360;48.152;-1.788;2023-07-02T07:28:26;102583.88;;;17.61;100.00
25430;BME280;13360;48.152;-1.788;2023-07-02T07:30:51;102560.09;;;17.63;100.00
25430;BME280;13360;48.152;-1.788;2023-07-02T07:33:16;102618.16;;;17.72;100.00
25430;BME280;13360;48.152;-1.788;2023-07-02T07:35:41;102589.00;;;17.78;100.00
25430;BME280;13360;48.152;-1.788;2023-07-02T07:38:07;102551.44;;;17.84;100.00
25430;BME280;13360;48.152;-1.788;2023-07-02T07:40:32;102520.31;;;17.90;100.00
25430;BME280;13360;48.152;-1.788;2023-07-02T07:42:57;102507.41;;;17.94;100.00
25430;BME280;13360;48.152;-1.788;2023-07-02T07:45:23;102482.47;;;17.98;100.00
25430;BME280;13360;48.152;-1.788;2023-07-02T07:47:48;102479.78;;;18.07;100.00
25430;BME280;13360;48.152;-1.788;2023-07-02T07:50:13;102462.41;;;18.10;100.00
25430;BME280;13360;48.152;-1.788;2023-07-02T07:52:39;102437.38;;;18.18;100.00
25430;BME280;13360;48.152;-1.788;2023-07-02T07:55:05;102442.47;;;18.30;100.00
25430;BME280;13360;48.152;-1.788;2023-07-02T07:57:30;102425.09;;;18.33;100.00
25430;BME280;13360;48.152;-1.788;2023-07-02T07:59:55;102398.03;;;18.28;100.00
25430;BME280;13360;48.152;-1.788;2023-07-02T08:02:20;102379.28;;;18.29;100.00
25430;BME280;13360;48.152;-1.788;2023-07-02T08:04:47;102344.47;;;18.21;100.00
25430;BME280;13360;48.152;-1.788;2023-07-02T08:07:13;102291.75;;;18.15;100.00
25430;BME280;13360;48.152;-1.788;2023-07-02T08:09:38;102247.94;;;18.10;100.00
25430;BME280;13360;48.152;-1.788;2023-07-02T08:12:03;102266.47;;;18.06;100.00
25430;BME280;13360;48.152;-1.788;2023-07-02T08:14:29;102347.56;;;18.06;100.00
25430;BME280;13360;48.152;-1.788;2023-07-02T08:16:54;102259.53;;;18.17;100.00
25430;BME280;13360;48.152;-1.788;2023-07-02T08:19:19;102220.34;;;18.31;100.00
25430;BME280;13360;48.152;-1.788;2023-07-02T08:21:46;102206.34;;;18.45;100.00
25430;BME280;13360;48.152;-1.788;2023-07-02T08:24:11;102202.78;;;18.53;100.00
25430;BME280;13360;48.152;-1.788;2023-07-02T08:26:37;102166.41;;;18.67;100.00
25430;BME280;13360;48.152;-1.788;2023-07-02T08:29:03;102155.31;;;18.75;100.00
25430;BME280;13360;48.152;-1.788;2023-07-02T08:31:28;102130.28;;;18.79;100.00
25430;BME280;13360;48.152;-1.788;2023-07-02T08:33:53;102087.84;;;18.85;100.00
25430;BME280;13360;48.152;-1.788;2023-07-02T08:36:19;102065.19;;;18.96;100.00
25430;BME280;13360;48.152;-1.788;2023-07-02T08:38:44;102058.66;;;19.09;100.00
25430;BME280;13360;48.152;-1.788;2023-07-02T08:41:10;102040.66;;;19.01;100.00
25430;BME280;13360;48.152;-1.788;2023-07-02T08:43:35;102016.06;;;18.89;100.00
25430;BME280;13360;48.152;-1.788;2023-07-02T08:46:00;101987.72;;;18.82;100.00
25430;BME280;13360;48.152;-1.788;2023-07-02T08:48:26;101961.03;;;18.76;100.00
25430;BME280;13360;48.152;-1.788;2023-07-02T08:50:51;101973.50;;;18.70;100.00
25430;BME280;13360;48.152;-1.788;2023-07-02T08:53:16;101942.38;;;18.72;100.00
25430;BME280;13360;48.152;-1.788;2023-07-02T08:55:42;101913.31;;;18.90;100.00
25430;BME280;13360;48.152;-1.788;2023-07-02T08:58:07;101917.66;;;19.05;100.00
25430;BME280;13360;48.152;-1.788;2023-07-02T09:00:32;101890.16;;;19.15;100.00
25430;BME280;13360;48.152;-1.788;2023-07-02T09:03:12;101858.69;;;19.27;100.00
25430;BME280;13360;48.152;-1.788;2023-07-02T09:05:47;101746.34;;;19.37;100.00
25430;BME280;13360;48.152;-1.788;2023-07-02T09:08:12;101689.28;;;19.50;100.00
25430;BME280;13360;48.152;-1.788;2023-07-02T09:10:37;101687.78;;;19.62;100.00
25430;BME280;13360;48.152;-1.788;2023-07-02T09:13:06;101668.50;;;19.52;100.00
25430;BME280;13360;48.152;-1.788;2023-07-02T09:15:35;101650.28;;;19.37;100.00
25430;BME280;13360;48.152;-1.788;2023-07-02T09:18:01;101633.00;;;19.26;100.00
25430;BME280;13360;48.152;-1.788;2023-07-02T09:20:32;101636.47;;;19.23;100.00
25430;BME280;13360;48.152;-1.788;2023-07-02T09:22:57;101640.41;;;19.22;100.00
25430;BME280;13360;48.152;-1.788;2023-07-02T09:25:33;101669.25;;;19.14;100.00
25430;BME280;13360;48.152;-1.788;2023-07-02T09:27:58;101586.34;;;18.66;100.00
25430;BME280;13360;48.152;-1.788;2023-07-02T09:30:23;101535.50;;;18.55;100.00
25430;BME280;13360;48.152;-1.788;2023-07-02T09:32:48;101505.19;;;18.57;100.00
25430;BME280;13360;48.152;-1.788;2023-07-02T09:35:14;101467.19;;;18.48;100.00
25430;BME280;13360;48.152;-1.788;2023-07-02T09:37:42;101451.50;;;18.81;100.00
25430;BME280;13360;48.152;-1.788;2023-07-02T09:40:08;101446.66;;;19.29;100.00
25430;BME280;13360;48.152;-1.788;2023-07-02T09:42:34;101440.31;;;19.70;100.00
25430;BME280;13360;48.152;-1.788;2023-07-02T09:45:00;101426.75;;;19.72;100.00
25430;BME280;13360;48.152;-1.788;2023-07-02T09:47:27;101399.88;;;19.50;100.00
25430;BME280;13360;48.152;-1.788;2023-07-02T09:49:55;101401.38;;;19.27;100.00
25430;BME280;13360;48.152;-1.788;2023-07-02T09:52:20;101396.13;;;18.96;100.00
25430;BME280;13360;48.152;-1.788;2023-07-02T09:54:46;101389.25;;;18.84;100.00
25430;BME280;13360;48.152;-1.788;2023-07-02T09:57:11;101392.78;;;19.02;100.00
25430;BME280;13360;48.152;-1.788;2023-07-02T09:59:37;101386.84;;;19.04;100.00
25430;BME280;13360;48.152;-1.788;2023-07-02T10:02:02;101378.66;;;18.99;100.00
25430;BME280;13360;48.152;-1.788;2023-07-02T10:04:28;101391.81;;;18.98;100.00
25430;BME280;13360;48.152;-1.788;2023-07-02T10:06:54;101418.88;;;19.15;100.00
25430;BME280;13360;48.152;-1.788;2023-07-02T10:09:20;101423.63;;;19.23;100.00
25430;BME280;13360;48.152;-1.788;2023-07-02T10:11:45;101424.44;;;19.24;100.00
25430;BME280;13360;48.152;-1.788;2023-07-02T10:14:11;101412.44;;;19.23;100.00
25430;BME280;13360;48.152;-1.788;2023-07-02T10:16:52;101437.22;;;19.33;100.00
25430;BME280;13360;48.152;-1.788;2023-07-02T10:19:18;101450.78;;;20.15;100.00
25430;BME280;13360;48.152;-1.788;2023-07-02T10:21:44;101420.84;;;20.85;100.00
25430;BME280;13360;48.152;-1.788;2023-07-02T10:24:14;101396.50;;;20.64;100.00
25430;BME280;13360;48.152;-1.788;2023-07-02T10:29:18;101382.19;;;20.12;100.00
25430;BME280;13360;48.152;-1.788;2023-07-02T10:31:53;101397.91;;;20.37;100.00
25430;BME280;13360;48.152;-1.788;2023-07-02T10:34:34;101374.50;;;20.79;100.00
25430;BME280;13360;48.152;-1.788;2023-07-02T10:37:00;101379.22;;;20.87;100.00
25430;BME280;13360;48.152;-1.788;2023-07-02T10:39:26;101394.41;;;21.10;100.00
25430;BME280;13360;48.152;-1.788;2023-07-02T10:41:52;101379.66;;;20.77;100.00
25430;BME280;13360;48.152;-1.788;2023-07-02T10:44:17;101386.53;;;20.43;100.00
25430;BME280;13360;48.152;-1.788;2023-07-02T10:46:43;101388.69;;;20.25;100.00
25430;BME280;13360;48.152;-1.788;2023-07-02T10:49:08;101385.81;;;20.13;100.00
25430;BME280;13360;48.152;-1.788;2023-07-02T10:51:34;101394.47;;;20.07;100.00
25430;BME280;13360;48.152;-1.788;2023-07-02T10:54:00;101402.88;;;20.07;100.00
25430;BME280;13360;48.152;-1.788;2023-07-02T10:56:26;101399.72;;;20.09;100.00
25430;BME280;13360;48.152;-1.788;2023-07-02T10:58:52;101406.63;;;20.12;100.00
25430;BME280;13360;48.152;-1.788;2023-07-02T11:01:28;101423.56;;;20.15;100.00
25430;BME280;13360;48.152;-1.788;2023-07-02T11:03:57;101416.19;;;20.10;100.00
25430;BME280;13360;48.152;-1.788;2023-07-02T11:06:23;101402.13;;;19.98;100.00
25430;BME280;13360;48.152;-1.788;2023-07-02T11:08:49;101381.78;;;19.89;100.00
25430;BME280;13360;48.152;-1.788;2023-07-02T11:11:14;101396.97;;;19.88;100.00
25430;BME280;13360;48.152;-1.788;2023-07-02T11:13:46;101420.06;;;19.85;100.00
25430;BME280;13360;48.152;-1.788;2023-07-02T11:16:19;101432.13;;;19.98;100.00
25430;BME280;13360;48.152;-1.788;2023-07-02T11:18:44;101442.03;;;20.16;100.00
25430;BME280;13360;48.152;-1.788;2023-07-02T11:21:09;101427.72;;;20.30;100.00
25430;BME280;13360;48.152;-1.788;2023-07-02T11:23:35;101437.16;;;20.46;100.00
25430;BME280;13360;48.152;-1.788;2023-07-02T11:26:01;101433.09;;;20.35;100.00
25430;BME280;13360;48.152;-1.788;2023-07-02T11:28:28;101400.44;;;20.18;100.00
25430;BME280;13360;48.152;-1.788;2023-07-02T11:30:53;101404.97;;;20.10;100.00
25430;BME280;13360;48.152;-1.788;2023-07-02T11:33:20;101411.97;;;20.04;100.00
25430;BME280;13360;48.152;-1.788;2023-07-02T11:35:45;101419.44;;;20.00;100.00
25430;BME280;13360;48.152;-1.788;2023-07-02T11:38:11;101415.00;;;19.99;100.00
25430;BME280;13360;48.152;-1.788;2023-07-02T11:40:36;101400.00;;;19.95;100.00
25430;BME280;13360;48.152;-1.788;2023-07-02T11:43:02;101407.25;;;19.96;100.00
25430;BME280;13360;48.152;-1.788;2023-07-02T11:45:27;101414.50;;;19.97;100.00
25430;BME280;13360;48.152;-1.788;2023-07-02T11:47:53;101417.81;;;19.99;100.00
25430;BME280;13360;48.152;-1.788;2023-07-02T11:50:18;101429.50;;;20.01;100.00
25430;BME280;13360;48.152;-1.788;2023-07-02T11:52:43;101438.38;;;20.03;100.00
25430;BME280;13360;48.152;-1.788;2023-07-02T11:55:08;101437.56;;;20.03;100.00
25430;BME280;13360;48.152;-1.788;2023-07-02T11:57:33;101439.19;;;20.04;100.00
25430;BME280;13360;48.152;-1.788;2023-07-02T11:59:59;101445.28;;;20.06;100.00
25430;BME280;13360;48.152;-1.788;2023-07-02T12:02:25;101454.50;;;20.06;100.00
25430;BME280;13360;48.152;-1.788;2023-07-02T12:04:50;101456.16;;;20.07;100.00
25430;BME280;13360;48.152;-1.788;2023-07-02T12:07:15;101463.41;;;20.08;100.00
25430;BME280;13360;48.152;-1.788;2023-07-02T12:09:40;101462.59;;;20.08;100.00
25430;BME280;13360;48.152;-1.788;2023-07-02T12:12:06;101466.56;;;20.07;100.00
25430;BME280;13360;48.152;-1.788;2023-07-02T12:14:31;101472.97;;;20.07;100.00
25430;BME280;13360;48.152;-1.788;2023-07-02T12:16:56;101472.50;;;20.05;100.00
25430;BME280;13360;48.152;-1.788;2023-07-02T12:19:22;101482.09;;;20.04;100.00
25430;BME280;13360;48.152;-1.788;2023-07-02T12:21:47;101487.69;;;20.04;100.00
25430;BME280;13360;48.152;-1.788;2023-07-02T12:24:12;101481.59;;;20.02;100.00
25430;BME280;13360;48.152;-1.788;2023-07-02T12:26:38;101487.22;;;20.02;100.00
25430;BME280;13360;48.152;-1.788;2023-07-02T12:29:04;101479.28;;;20.04;100.00
25430;BME280;13360;48.152;-1.788;2023-07-02T12:31:29;101487.00;;;20.07;100.00